Neptune Okeanis — 9HZW7 — position and weather

sailwx.info

Track history (hours):
 
Tides and Currents Weather Stations Pressure Air Temp Water Temp Dewpoint Dewpoint Depression Visibility Wind Speed Wind Dir Waves Ship Positions

Neptune Okeanis

Last reported at 2018-Apr-25 21:04 UTC. Time now 2018-Apr-26 16:53 UTC.
Position N 41°09' E 002°14'.

Length 163 m; draft 5.6 m.

Type: Cargo ship. MMSI: 215912000.

Date/timePositionNaut miles runAvg speedWind from/ knotsBaromVisibWave heightAir tempDewpointWater temp
2018-Apr-25 21:04N 41°09' E 002°14'113.0
2018-Apr-25 21:00N 41°09' E 002°15'713.0
2018-Apr-25 20:30N 41°14' E 002°21'812.8
2018-Apr-25 19:54N 41°19' E 002°29'15616.2
2018-Apr-25 10:18N 43°13' E 004°52'517.2
2018-Apr-25 10:00N 43°17' E 004°57'610.7
2018-Apr-25 09:28N 43°23' E 004°56'4 0.3
2018-Apr-24 18:51N 43°24' E 004°51'2 6.8
2018-Apr-24 18:29N 43°24' E 004°54'611.9
2018-Apr-24 18:00N 43°19' E 004°59'5 9.2
2018-Apr-24 17:30N 43°15' E 005°01'13 0.4
2018-Apr-23 09:37N 43°02' E 005°03'69 9.6
2018-Apr-23 02:24N 42°33' E 006°28'20211.2
2018-Apr-22 08:28N 40°56' E 010°26'8711.8
2018-Apr-22 01:09N 40°11' E 012°03'23111.5
2018-Apr-21 05:00N 37°49' E 015°57'36612.9
2018-Apr-20 00:40N 37°26' E 023°39'315.5
2018-Apr-20 00:29N 37°29' E 023°39'715.6
2018-Apr-20 00:00N 37°36' E 023°41'714.1
2018-Apr-19 23:30N 37°43' E 023°40'815.1
2018-Apr-19 23:01N 37°50' E 023°37'612.7
2018-Apr-19 22:31N 37°57' E 023°36'1 1.7
2018-Apr-19 22:00N 37°58' E 023°36'0 0.0
2018-Apr-19 21:30N 37°58' E 023°36'0 0.0
2018-Apr-19 21:00N 37°58' E 023°36'0 0.0
2018-Apr-19 20:29N 37°58' E 023°36'0 0.0
2018-Apr-19 20:00N 37°58' E 023°36'0 0.0
2018-Apr-19 19:30N 37°58' E 023°36'0 0.0
2018-Apr-19 19:01N 37°58' E 023°36'0 0.0
2018-Apr-19 18:31N 37°58' E 023°36'0 0.0
2018-Apr-19 18:01N 37°58' E 023°36'0 0.0
2018-Apr-19 17:30N 37°58' E 023°36'0 0.0
2018-Apr-19 17:00N 37°58' E 023°36'0 0.9
2018-Apr-19 16:30N 37°57' E 023°36'2 4.4
2018-Apr-19 16:01N 37°55' E 023°36'1 2.4
2018-Apr-19 15:31N 37°54' E 023°36'0 0.6
2018-Apr-19 15:00N 37°54' E 023°36'0 0.5
2018-Apr-19 14:30N 37°54' E 023°36'1 3.0
2018-Apr-19 14:01N 37°53' E 023°37'1 2.6
2018-Apr-19 13:30N 37°51' E 023°38'4 7.1
2018-Apr-19 13:01N 37°48' E 023°40'5 9.4
2018-Apr-19 12:30N 37°44' E 023°43'5 9.3
2018-Apr-19 12:01N 37°40' E 023°46'  
Track history (hours):
 
Tides and Currents Weather Stations Pressure Air Temp Water Temp Dewpoint Dewpoint Depression Visibility Wind Speed Wind Dir Waves Ship Positions

Neptune Okeanis

Last reported at 2018-Apr-25 21:04 UTC. Time now 2018-Apr-26 16:53 UTC.
Position N 41°09' E 002°14'.

Length 163 m; draft 5.6 m.

Type: Cargo ship. MMSI: 215912000.

Date/timePositionNaut miles runAvg speedWind from/ knotsBaromVisibWave heightAir tempDewpointWater temp
2018-Apr-25 21:04N 41°09' E 002°14'113.0
2018-Apr-25 21:00N 41°09' E 002°15'713.0
2018-Apr-25 20:30N 41°14' E 002°21'812.8
2018-Apr-25 19:54N 41°19' E 002°29'15616.2
2018-Apr-25 10:18N 43°13' E 004°52'517.2
2018-Apr-25 10:00N 43°17' E 004°57'610.7
2018-Apr-25 09:28N 43°23' E 004°56'4 0.3
2018-Apr-24 18:51N 43°24' E 004°51'2 6.8
2018-Apr-24 18:29N 43°24' E 004°54'611.9
2018-Apr-24 18:00N 43°19' E 004°59'5 9.2
2018-Apr-24 17:30N 43°15' E 005°01'13 0.4
2018-Apr-23 09:37N 43°02' E 005°03'69 9.6
2018-Apr-23 02:24N 42°33' E 006°28'20211.2
2018-Apr-22 08:28N 40°56' E 010°26'8711.8
2018-Apr-22 01:09N 40°11' E 012°03'23111.5
2018-Apr-21 05:00N 37°49' E 015°57'36612.9
2018-Apr-20 00:40N 37°26' E 023°39'315.5
2018-Apr-20 00:29N 37°29' E 023°39'715.6
2018-Apr-20 00:00N 37°36' E 023°41'714.1
2018-Apr-19 23:30N 37°43' E 023°40'815.1
2018-Apr-19 23:01N 37°50' E 023°37'612.7
2018-Apr-19 22:31N 37°57' E 023°36'1 1.7
2018-Apr-19 22:00N 37°58' E 023°36'0 0.0
2018-Apr-19 21:30N 37°58' E 023°36'0 0.0
2018-Apr-19 21:00N 37°58' E 023°36'0 0.0
2018-Apr-19 20:29N 37°58' E 023°36'0 0.0
2018-Apr-19 20:00N 37°58' E 023°36'0 0.0
2018-Apr-19 19:30N 37°58' E 023°36'0 0.0
2018-Apr-19 19:01N 37°58' E 023°36'0 0.0
2018-Apr-19 18:31N 37°58' E 023°36'0 0.0
2018-Apr-19 18:01N 37°58' E 023°36'0 0.0
2018-Apr-19 17:30N 37°58' E 023°36'0 0.0
2018-Apr-19 17:00N 37°58' E 023°36'0 0.9
2018-Apr-19 16:30N 37°57' E 023°36'2 4.4
2018-Apr-19 16:01N 37°55' E 023°36'1 2.4
2018-Apr-19 15:31N 37°54' E 023°36'0 0.6
2018-Apr-19 15:00N 37°54' E 023°36'0 0.5
2018-Apr-19 14:30N 37°54' E 023°36'1 3.0
2018-Apr-19 14:01N 37°53' E 023°37'1 2.6
2018-Apr-19 13:30N 37°51' E 023°38'4 7.1
2018-Apr-19 13:01N 37°48' E 023°40'5 9.4
2018-Apr-19 12:30N 37°44' E 023°43'5 9.3
2018-Apr-19 12:01N 37°40' E 023°46'  

Dump ship's entire track history